Terminal Aerodrome Forecast
Issued by NWS

Home | Current Version | Previous Version | Text Only | Print | Product List | Glossary On
Versions: 1 2 3 4 5 6 7 8 9 10 11 12 13 14
000
FTUS46 KOTX 291120
TAFMWH
TAF
KMWH 291120Z 2912/3012 32004KT P6SM BKN090 BKN110
     FM291800 25009KT P6SM VCSH BKN060 OVC090
     FM292300 24010KT P6SM SCT070 BKN100
     FM300200 27004KT P6SM SCT100=

USA.gov is the U.S. government's official web portal to all federal, state and local government web resources and services.